Martos, Spain
Current Conditions -  °F | °C
As of 10:30 AM on Thursday 18 Dec 2014 (Local Time) from LEGR Reporting Station
Clear Clear  
Wind Chill: 41°   Ceiling: Unl
Heat Index: 41°   Visibility: 6mi
Dew Point: 39°   Wind: 0mph
Humidity: 93%   Direction: NA
Pressure: 30.36"   Gusts: NA
Location:  37.72°N, 3.97°W
Report Text: LEGR 180930Z 00000KT CAVOK 05/04 Q1028
Loading
Personal Weather Stations






























Interactive Weather Map New forecast layout! Learn more

10-Day Weather Forecast

Advertisements
Track Severe Weather on mobile